ENHK

Hasvik Airport

Hasvik, Norway
METAR ENHK 231950Z 15016KT CAVOK M05/M12 Q1035
Observed Flight Rules
Feb-23 @ 19:50 UTC (3 hours ago) Visual Flight Rules
Wind Visibility Clouds
150° at 16 knots 10,000+ meters
  • Clear skies
Temperatures Readings
Current -5°C / 23°F
Dewpoint -12°C / 10°F
Humidity 58%
Altimeter 30.56" Hg
Pressure 1035 hPa
Elevation 10
METAR ENHK 231950Z 15016KT CAVOK M05/M12 Q1035
Observed Flight Rules
Feb-23 @ 19:50 UTC
(3 hours ago)
VFR
Wind Visibility
150° at 16 knots 10,000+ meters
Clouds
  • Clear skies
Temperature Dewpoint
-5°C / 23°F -12°C / 10°F
Humidity Altimeter Pressure
58% 30.56" Hg 1035 hPa